createdAt,value
2022-09-05T00:02:33.812Z,11.60
2022-09-05T00:06:04.836Z,11.56
2022-09-05T00:09:13.268Z,11.48
2022-09-05T00:12:03.864Z,11.38
2022-09-05T00:15:20.679Z,11.34
2022-09-05T00:24:21.445Z,11.30
2022-09-05T00:24:29.933Z,11.30
2022-09-05T00:26:04.261Z,11.23
2022-09-05T00:29:14.831Z,11.12
2022-09-05T00:32:34.551Z,11.03
2022-09-05T00:35:45.792Z,10.97
2022-09-05T00:38:37.006Z,10.91
2022-09-05T00:41:24.887Z,10.88
2022-09-05T00:44:14.744Z,10.83
2022-09-05T00:47:11.978Z,10.80
2022-09-05T00:50:14.868Z,10.75
2022-09-05T00:53:26.213Z,10.73
2022-09-05T00:56:52.194Z,10.72
2022-09-05T00:59:50.816Z,10.71
2022-09-05T01:03:11.918Z,10.64
2022-09-05T01:06:19.897Z,10.61
2022-09-05T01:09:13.422Z,10.61
2022-09-05T01:12:32.842Z,10.59
2022-09-05T01:15:45.604Z,10.58
2022-09-05T01:19:09.943Z,10.55
2022-09-05T01:22:44.798Z,10.51
2022-09-05T01:26:03.741Z,10.50
2022-09-05T01:29:28.718Z,10.49
2022-09-05T01:32:33.195Z,10.41
2022-09-05T01:35:28.703Z,10.34
2022-09-05T01:38:29.249Z,10.40
2022-09-05T01:41:29.620Z,10.44
2022-09-05T01:44:31.231Z,10.42
2022-09-05T01:47:42.323Z,10.36
2022-09-05T01:50:50.936Z,10.33
2022-09-05T01:54:07.543Z,10.35
2022-09-05T01:57:25.191Z,10.34
2022-09-05T02:00:23.354Z,10.31
2022-09-05T02:03:09.152Z,10.25
2022-09-05T02:06:09.880Z,10.21
2022-09-05T02:09:09.291Z,10.13
2022-09-05T02:12:04.493Z,10.06
2022-09-05T02:15:08.064Z,9.97
2022-09-05T02:18:11.529Z,9.94
2022-09-05T02:21:01.823Z,9.96
2022-09-05T02:24:03.782Z,10.01
2022-09-05T02:27:12.553Z,9.95
2022-09-05T02:30:26.556Z,9.91
2022-09-05T02:33:27.583Z,9.83
2022-09-05T02:36:30.266Z,9.72
2022-09-05T02:45:03.342Z,9.62
2022-09-05T02:45:11.148Z,9.57
2022-09-05T02:46:13.161Z,9.52
2022-09-05T02:50:33.387Z,9.49
2022-09-05T02:57:23.868Z,9.45
2022-09-05T02:57:40.980Z,9.43
2022-09-05T02:59:09.169Z,9.42
2022-09-05T03:02:26.114Z,9.40
2022-09-05T03:06:11.372Z,9.38
2022-09-05T03:09:16.817Z,9.35
2022-09-05T03:12:31.654Z,9.33
2022-09-05T03:15:26.318Z,9.28
2022-09-05T03:18:43.353Z,9.26
2022-09-05T03:22:00.992Z,9.21
2022-09-05T03:25:01.859Z,9.18
2022-09-05T03:28:16.192Z,9.16
2022-09-05T03:31:22.485Z,9.12
2022-09-05T03:34:26.567Z,9.08
2022-09-05T03:37:31.723Z,9.01
2022-09-05T03:40:35.054Z,8.91
2022-09-05T03:43:51.447Z,8.86
2022-09-05T03:46:51.721Z,8.86
2022-09-05T03:53:48.330Z,8.86
2022-09-05T03:57:14.441Z,8.85
2022-09-05T03:57:23.792Z,8.76
2022-09-05T04:00:21.108Z,8.67
2022-09-05T04:08:13.435Z,8.57
2022-09-05T04:08:15.053Z,8.61
2022-09-05T04:10:26.909Z,8.60
2022-09-05T04:13:47.621Z,8.61
2022-09-05T04:16:50.654Z,8.66
2022-09-05T04:19:50.015Z,8.68
2022-09-05T04:23:13.198Z,8.68
2022-09-05T04:26:43.538Z,8.67
2022-09-05T04:29:59.538Z,8.72
2022-09-05T04:33:01.608Z,8.74
2022-09-05T04:36:33.881Z,8.68
2022-09-05T04:39:19.584Z,8.62
2022-09-05T04:42:05.771Z,8.61
2022-09-05T04:45:08.031Z,8.63
2022-09-05T04:47:56.903Z,8.67
2022-09-05T04:51:31.888Z,8.73
2022-09-05T04:54:36.582Z,8.78
2022-09-05T04:57:50.420Z,8.85
2022-09-05T05:06:08.226Z,8.91
2022-09-05T05:06:14.485Z,8.99
2022-09-05T05:07:41.094Z,9.04
2022-09-05T05:16:10.834Z,9.10
2022-09-05T05:17:59.775Z,9.21
2022-09-05T05:18:15.330Z,9.35
2022-09-05T05:20:50.629Z,9.51
2022-09-05T05:23:44.146Z,9.65
2022-09-05T05:26:48.774Z,9.80
2022-09-05T05:30:02.516Z,9.95
2022-09-05T05:32:52.881Z,10.09
2022-09-05T05:35:48.403Z,10.23
2022-09-05T05:38:34.723Z,10.39
2022-09-05T05:41:26.624Z,10.55
2022-09-05T05:44:17.943Z,10.72
2022-09-05T05:47:31.251Z,10.86
2022-09-05T05:50:39.950Z,11.04
2022-09-05T05:53:43.488Z,11.22
2022-09-05T05:56:41.401Z,11.39
2022-09-05T06:00:00.287Z,11.57
2022-09-05T06:03:25.077Z,11.78
2022-09-05T06:06:48.767Z,12.01
2022-09-05T06:14:48.635Z,12.22
2022-09-05T06:15:00.626Z,12.44
2022-09-05T06:16:38.869Z,12.66
2022-09-05T06:22:04.483Z,12.85
2022-09-05T06:23:18.997Z,13.08
2022-09-05T06:26:58.643Z,13.27
2022-09-05T06:30:00.168Z,13.48
2022-09-05T06:33:12.488Z,13.66
2022-09-05T06:36:07.901Z,13.86
2022-09-05T06:39:11.624Z,14.07
2022-09-05T06:42:43.358Z,14.21
2022-09-05T06:46:01.845Z,14.45
2022-09-05T06:49:28.398Z,14.65
2022-09-05T06:52:28.302Z,14.84
2022-09-05T06:55:40.869Z,14.99
2022-09-05T06:58:42.249Z,15.15
2022-09-05T07:01:53.835Z,15.28
2022-09-05T07:05:23.619Z,15.45
2022-09-05T07:08:44.704Z,15.62
2022-09-05T07:11:52.540Z,15.75
2022-09-05T07:14:47.606Z,15.87
2022-09-05T07:18:09.695Z,16.00
2022-09-05T07:21:16.790Z,16.18
2022-09-05T07:24:10.178Z,16.33
2022-09-05T07:27:00.263Z,16.46
2022-09-05T07:29:53.345Z,16.61
2022-09-05T07:32:57.079Z,16.76
2022-09-05T07:35:44.290Z,16.90
2022-09-05T07:38:52.345Z,17.01
2022-09-05T07:41:43.172Z,17.12
2022-09-05T07:44:37.237Z,17.18
2022-09-05T07:47:28.400Z,17.27
2022-09-05T07:52:32.563Z,17.38
2022-09-05T07:56:50.902Z,17.50
2022-09-05T07:57:22.282Z,17.63
2022-09-05T08:00:27.127Z,17.79
2022-09-05T08:03:15.719Z,17.92
2022-09-05T08:06:09.556Z,18.06
2022-09-05T08:09:21.368Z,18.15
2022-09-05T08:12:32.929Z,18.21
2022-09-05T08:16:10.475Z,18.33
2022-09-05T08:19:14.688Z,18.43
2022-09-05T08:22:03.890Z,18.50
2022-09-05T08:25:00.094Z,18.57
2022-09-05T08:28:39.008Z,18.65
2022-09-05T08:31:52.150Z,18.76
2022-09-05T08:34:51.840Z,18.84
2022-09-05T08:37:38.464Z,18.89
2022-09-05T08:40:37.959Z,18.96
2022-09-05T08:46:36.041Z,19.04
2022-09-05T08:46:49.070Z,19.11
2022-09-05T08:50:08.962Z,19.20
2022-09-05T08:53:30.924Z,19.30
2022-09-05T08:56:20.753Z,19.39
2022-09-05T09:00:06.308Z,19.43
2022-09-05T09:03:13.322Z,19.47
2022-09-05T09:06:17.405Z,19.56
2022-09-05T09:09:24.240Z,19.62
2022-09-05T09:12:31.941Z,19.63
2022-09-05T09:15:29.314Z,19.70
2022-09-05T09:18:20.587Z,19.80
2022-09-05T09:21:29.119Z,19.90
2022-09-05T09:24:47.033Z,20.02
2022-09-05T09:28:49.043Z,20.14
2022-09-05T09:31:22.482Z,20.27
2022-09-05T09:34:14.585Z,20.34
2022-09-05T09:37:20.141Z,20.38
2022-09-05T09:41:05.551Z,20.47
2022-09-05T09:44:11.558Z,20.58
2022-09-05T09:46:58.090Z,20.62
2022-09-05T09:49:46.559Z,20.60
2022-09-05T09:52:53.887Z,20.62
2022-09-05T09:55:57.760Z,20.70
2022-09-05T09:58:55.373Z,20.77
2022-09-05T10:01:53.802Z,20.84
2022-09-05T10:10:39.520Z,20.99
2022-09-05T10:10:44.346Z,21.16
2022-09-05T10:12:06.961Z,21.19
2022-09-05T10:14:55.962Z,21.20
2022-09-05T10:18:27.147Z,21.34
2022-09-05T10:21:38.826Z,21.46
2022-09-05T10:24:46.677Z,21.48
2022-09-05T10:27:53.590Z,21.54
2022-09-05T10:32:10.318Z,21.58
2022-09-05T10:35:13.600Z,21.63
2022-09-05T10:38:10.227Z,21.70
2022-09-05T10:41:21.601Z,21.74
2022-09-05T10:44:13.898Z,21.81
2022-09-05T10:47:14.965Z,21.86
2022-09-05T10:50:35.191Z,21.94
2022-09-05T10:53:55.217Z,21.92
2022-09-05T10:56:56.475Z,21.94
2022-09-05T11:02:22.001Z,21.85
2022-09-05T11:03:45.094Z,21.95
2022-09-05T11:06:57.043Z,22.01
2022-09-05T11:09:45.382Z,21.90
2022-09-05T11:13:17.444Z,21.89
2022-09-05T11:16:24.798Z,21.81
2022-09-05T11:19:36.355Z,21.80
2022-09-05T11:22:27.276Z,21.78
2022-09-05T11:25:39.628Z,21.81
2022-09-05T11:28:57.410Z,21.86
2022-09-05T11:34:02.836Z,21.96
2022-09-05T11:39:53.972Z,22.06
2022-09-05T11:40:05.888Z,22.07
2022-09-05T11:42:14.693Z,22.12
2022-09-05T11:45:37.566Z,22.07
2022-09-05T11:48:58.687Z,22.06
2022-09-05T11:51:47.060Z,22.00
2022-09-05T11:55:00.657Z,22.01
2022-09-05T11:57:58.657Z,22.05
2022-09-05T12:01:42.067Z,22.11
2022-09-05T12:04:31.451Z,22.17
2022-09-05T12:07:43.136Z,22.17
2022-09-05T12:11:07.616Z,22.16
2022-09-05T12:14:21.232Z,22.15
2022-09-05T12:17:34.832Z,22.19
2022-09-05T12:20:54.850Z,22.26
2022-09-05T12:24:59.289Z,22.28
2022-09-05T12:27:36.296Z,22.29
2022-09-05T12:30:30.094Z,22.28
2022-09-05T12:35:52.956Z,22.33
2022-09-05T12:40:55.325Z,22.33
2022-09-05T12:41:33.332Z,22.32
2022-09-05T12:44:39.788Z,22.20
2022-09-05T12:47:16.623Z,22.21
2022-09-05T12:50:17.454Z,22.24
2022-09-05T12:53:11.302Z,22.24
2022-09-05T12:56:47.981Z,22.29
2022-09-05T13:03:04.489Z,22.31
2022-09-05T13:03:08.576Z,22.34
2022-09-05T13:06:04.649Z,22.28
2022-09-05T13:08:59.382Z,22.18
2022-09-05T13:14:58.749Z,22.19
2022-09-05T13:15:36.536Z,22.16
2022-09-05T13:18:28.976Z,22.16
2022-09-05T13:21:26.342Z,22.18
2022-09-05T13:24:28.064Z,22.23
2022-09-05T13:27:18.632Z,22.14
2022-09-05T13:32:50.017Z,22.07
2022-09-05T13:38:01.202Z,22.14
2022-09-05T13:38:04.875Z,22.31
2022-09-05T13:40:24.699Z,22.38
2022-09-05T13:43:15.658Z,22.39
2022-09-05T13:46:24.511Z,22.35
2022-09-05T13:49:32.474Z,22.23
2022-09-05T13:52:39.055Z,22.20
2022-09-05T13:55:40.115Z,22.23
2022-09-05T13:58:56.556Z,22.20
2022-09-05T14:03:29.484Z,22.09
2022-09-05T14:06:03.928Z,21.99
2022-09-05T14:09:45.022Z,21.91
2022-09-05T14:12:37.229Z,21.82
2022-09-05T14:15:29.621Z,21.78
2022-09-05T14:18:56.322Z,21.74
2022-09-05T14:21:46.008Z,21.71
2022-09-05T14:24:37.299Z,21.70
2022-09-05T14:27:30.378Z,21.72
2022-09-05T14:35:27.733Z,21.74
2022-09-05T14:37:42.126Z,21.77
2022-09-05T14:37:42.477Z,21.79
2022-09-05T14:40:29.882Z,21.85
2022-09-05T14:43:27.119Z,21.84
2022-09-05T14:46:28.444Z,21.85
2022-09-05T14:49:00.345Z,21.84
2022-09-05T14:51:43.260Z,21.85
2022-09-05T15:02:38.236Z,21.93
2022-09-05T15:02:44.276Z,21.91
2022-09-05T15:03:09.975Z,21.93
2022-09-05T15:05:46.182Z,21.99
2022-09-05T15:11:25.642Z,22.03
2022-09-05T15:12:17.000Z,22.01
2022-09-05T15:14:13.839Z,22.02
2022-09-05T15:16:59.222Z,22.07
2022-09-05T15:20:04.964Z,22.15
2022-09-05T15:22:38.055Z,22.14
2022-09-05T15:25:20.049Z,22.23
2022-09-05T15:27:50.767Z,22.19
2022-09-05T15:30:34.892Z,22.18
2022-09-05T15:33:26.761Z,22.17
2022-09-05T15:35:58.789Z,22.17
2022-09-05T15:38:54.453Z,22.20
2022-09-05T15:41:30.697Z,22.20
2022-09-05T15:44:09.419Z,22.27
2022-09-05T15:47:10.928Z,22.28
2022-09-05T15:49:50.716Z,22.22
2022-09-05T15:52:19.825Z,22.09
2022-09-05T15:54:51.572Z,22.00
2022-09-05T15:57:31.227Z,22.01
2022-09-05T16:00:09.845Z,22.04
2022-09-05T16:02:45.004Z,22.12
2022-09-05T16:10:28.829Z,22.26
2022-09-05T16:10:37.974Z,22.47
2022-09-05T16:14:43.580Z,24.26
2022-09-05T16:23:29.519Z,28.68
2022-09-05T16:23:34.059Z,26.29
2022-09-05T16:24:02.403Z,29.98
2022-09-05T16:26:56.522Z,30.97
2022-09-05T16:29:33.248Z,31.84
2022-09-05T16:32:10.939Z,32.43
2022-09-05T16:35:04.985Z,32.88
2022-09-05T16:37:41.497Z,33.34
2022-09-05T16:40:39.829Z,33.63
2022-09-05T16:43:25.503Z,33.80
2022-09-05T16:45:59.915Z,33.96
2022-09-05T16:48:50.165Z,33.92
2022-09-05T16:51:36.483Z,33.79
2022-09-05T16:54:14.376Z,32.99
2022-09-05T16:56:47.401Z,32.86
2022-09-05T16:59:20.643Z,32.85
2022-09-05T17:02:05.683Z,32.23
2022-09-05T17:05:04.813Z,31.22
2022-09-05T17:08:00.899Z,30.05
2022-09-05T17:10:41.857Z,28.58
2022-09-05T17:13:16.558Z,27.55
2022-09-05T17:15:52.450Z,26.89
2022-09-05T17:18:27.799Z,25.99
2022-09-05T17:21:03.402Z,25.11
2022-09-05T17:28:56.045Z,24.37
2022-09-05T17:29:24.242Z,23.52
2022-09-05T17:31:14.488Z,22.79
2022-09-05T17:32:52.238Z,22.11
2022-09-05T17:35:41.926Z,21.59
2022-09-05T17:38:48.960Z,21.04
2022-09-05T17:41:45.163Z,20.49
2022-09-05T17:44:24.517Z,19.97
2022-09-05T17:46:59.933Z,19.56
2022-09-05T17:49:48.175Z,19.23
2022-09-05T17:52:20.455Z,18.89
2022-09-05T17:54:53.152Z,18.63
2022-09-05T17:57:27.977Z,18.37
2022-09-05T18:00:11.222Z,18.10
2022-09-05T18:02:57.525Z,17.87
2022-09-05T18:05:59.539Z,17.61
2022-09-05T18:08:46.403Z,17.37
2022-09-05T18:11:27.966Z,17.15
2022-09-05T18:13:57.778Z,16.96
2022-09-05T18:16:46.946Z,16.80
2022-09-05T18:20:06.508Z,16.59
2022-09-05T18:22:43.092Z,16.42
2022-09-05T18:25:30.748Z,16.31
2022-09-05T18:28:23.231Z,16.19
2022-09-05T18:30:53.497Z,16.06
2022-09-05T18:33:55.809Z,15.95
2022-09-05T18:36:25.980Z,15.81
2022-09-05T18:39:26.171Z,15.67
2022-09-05T18:42:25.835Z,15.54
2022-09-05T18:44:59.704Z,15.42
2022-09-05T18:47:52.979Z,15.33
2022-09-05T18:50:34.486Z,15.23
2022-09-05T18:53:09.273Z,15.15
2022-09-05T18:56:13.789Z,15.08
2022-09-05T18:58:58.080Z,14.97
2022-09-05T19:01:42.361Z,14.87
2022-09-05T19:04:40.936Z,14.78
2022-09-05T19:07:22.488Z,14.68
2022-09-05T19:10:35.239Z,14.61
2022-09-05T19:13:15.616Z,14.52
2022-09-05T19:16:03.690Z,14.43
2022-09-05T19:19:16.410Z,14.36
2022-09-05T19:22:49.933Z,14.27
2022-09-05T19:24:46.870Z,14.18
2022-09-05T19:29:17.704Z,14.11
2022-09-05T19:36:54.502Z,13.96
2022-09-05T19:36:56.367Z,14.04
2022-09-05T19:37:25.475Z,13.89
2022-09-05T19:42:04.588Z,13.84
2022-09-05T19:47:49.840Z,13.69
2022-09-05T19:47:51.343Z,13.76
2022-09-05T19:48:03.994Z,13.61
2022-09-05T19:50:31.855Z,13.57
2022-09-05T19:53:06.988Z,13.54
2022-09-05T19:55:39.473Z,13.46
2022-09-05T19:58:20.502Z,13.40
2022-09-05T20:01:05.646Z,13.33
2022-09-05T20:03:41.041Z,13.27
2022-09-05T20:06:29.617Z,13.21
2022-09-05T20:09:20.402Z,13.14
2022-09-05T20:11:52.067Z,13.10
2022-09-05T20:14:27.598Z,13.07
2022-09-05T20:17:29.203Z,13.03
2022-09-05T20:20:12.807Z,12.98
2022-09-05T20:22:49.708Z,12.96
2022-09-05T20:25:36.573Z,12.92
2022-09-05T20:28:10.182Z,12.88
2022-09-05T20:30:46.371Z,12.83
2022-09-05T20:33:15.248Z,12.79
2022-09-05T20:40:14.562Z,12.75
2022-09-05T20:43:17.030Z,12.70
2022-09-05T20:43:19.153Z,12.65
2022-09-05T20:44:33.372Z,12.61
2022-09-05T20:52:26.031Z,12.58
2022-09-05T20:54:15.843Z,12.56
2022-09-05T20:54:22.769Z,12.50
2022-09-05T20:56:06.252Z,12.48
2022-09-05T20:58:38.339Z,12.48
2022-09-05T21:01:23.053Z,12.45
2022-09-05T21:04:01.122Z,12.42
2022-09-05T21:06:38.113Z,12.43
2022-09-05T21:09:15.736Z,12.43
2022-09-05T21:11:59.030Z,12.43
2022-09-05T21:14:29.717Z,12.41
2022-09-05T21:17:15.169Z,12.41
2022-09-05T21:19:53.918Z,12.40
2022-09-05T21:22:43.247Z,12.37
2022-09-05T21:25:17.370Z,12.36
2022-09-05T21:28:23.005Z,12.34
2022-09-05T21:30:51.827Z,12.30
2022-09-05T21:33:31.336Z,12.28
2022-09-05T21:36:15.443Z,12.27
2022-09-05T21:38:45.033Z,12.26
2022-09-05T21:41:16.923Z,12.26
2022-09-05T21:47:34.175Z,12.26
2022-09-05T21:47:46.805Z,12.24
2022-09-05T21:49:26.751Z,12.23
2022-09-05T21:51:56.058Z,12.20
2022-09-05T21:58:13.031Z,12.16
2022-09-05T21:59:26.710Z,12.11
2022-09-05T22:00:16.521Z,12.09
2022-09-05T22:02:49.890Z,12.05
2022-09-05T22:05:20.830Z,12.04
2022-09-05T22:07:49.707Z,11.98
2022-09-05T22:10:19.620Z,11.93
2022-09-05T22:12:49.506Z,11.89
2022-09-05T22:15:28.152Z,11.84
2022-09-05T22:18:17.652Z,11.79
2022-09-05T22:21:31.945Z,11.73
2022-09-05T22:23:46.452Z,11.67
2022-09-05T22:26:17.897Z,11.64
2022-09-05T22:28:50.161Z,11.62
2022-09-05T22:31:20.184Z,11.59
2022-09-05T22:33:50.875Z,11.55
2022-09-05T22:36:20.528Z,11.52
2022-09-05T22:38:49.725Z,11.50
2022-09-05T22:41:18.751Z,11.47
2022-09-05T22:43:59.493Z,11.42
2022-09-05T22:46:30.105Z,11.40
2022-09-05T22:48:59.215Z,11.37
2022-09-05T22:51:28.004Z,11.37
2022-09-05T22:53:57.102Z,11.36
2022-09-05T22:56:35.049Z,11.36
2022-09-05T22:59:05.565Z,11.36
2022-09-05T23:01:34.363Z,11.35
2022-09-05T23:04:04.089Z,11.34
2022-09-05T23:06:32.925Z,11.31
2022-09-05T23:09:02.022Z,11.32
2022-09-05T23:11:30.896Z,11.29
2022-09-05T23:14:00.515Z,11.26
2022-09-05T23:16:30.128Z,11.25
2022-09-05T23:18:59.125Z,11.22
2022-09-05T23:21:28.373Z,11.17
2022-09-05T23:23:56.859Z,11.15
2022-09-05T23:26:26.018Z,11.16
2022-09-05T23:28:55.108Z,11.16
2022-09-05T23:31:24.014Z,11.19
2022-09-05T23:33:52.990Z,11.20
2022-09-05T23:36:22.817Z,11.19
2022-09-05T23:38:51.585Z,11.18
2022-09-05T23:41:20.131Z,11.16
2022-09-05T23:43:48.614Z,11.14
2022-09-05T23:46:17.060Z,11.11
2022-09-05T23:48:45.714Z,11.07
2022-09-05T23:51:14.878Z,11.02
2022-09-05T23:53:43.662Z,10.97
2022-09-05T23:56:13.008Z,10.92
2022-09-05T23:58:42.403Z,10.86
